Time;durP1;ratioP1;P1;durP2;ratioP2;P2;SDS_P1;SDS_P2;PMS_P1;PMS_P2;Temp;Humidity;BMP_temperature;BMP_pressure;BME280_temperature;BME280_humidity;BME280_pressure;Samples;Min_cycle;Max_cycle;Signal;HPM_P1;HPM_P2
2022/06/02 00:02:47;;;;;;;11.80;8.50;;;24.10;88.40;;;;;;6190633;23;19899;-82
2022/06/02 00:05:22;;;;;;;12.55;8.55;;;24.10;88.40;;;;;;6247856;23;20000;-83
2022/06/02 00:07:59;;;;;;;14.98;8.82;;;24.10;88.20;;;;;;6247562;23;20004;-80
2022/06/02 00:10:34;;;;;;;13.70;8.32;;;24.10;88.20;;;;;;6247878;23;20000;-81
2022/06/02 00:13:48;;;;;;;13.95;9.27;;;24.10;88.30;;;;;;6221409;23;20000;-80
2022/06/02 00:16:25;;;;;;;20.02;8.85;;;24.10;88.60;;;;;;6221623;23;20078;-79
2022/06/02 00:19:02;;;;;;;13.55;9.40;;;24.10;88.60;;;;;;6220886;23;20304;-80
2022/06/02 00:21:40;;;;;;;13.63;8.80;;;24.10;88.80;;;;;;6248120;23;20005;-82
2022/06/02 00:24:12;;;;;;;13.48;8.98;;;24.10;88.80;;;;;;6247617;23;20004;-81
2022/06/02 00:26:59;;;;;;;12.68;7.75;;;24.10;89.00;;;;;;6221109;23;20004;-81
2022/06/02 00:29:50;;;;;;;17.95;9.60;;;24.10;89.70;;;;;;6247260;23;20011;-80
2022/06/02 00:32:38;;;;;;;15.48;8.43;;;24.00;90.00;;;;;;6219002;23;20451;-80
2022/06/02 00:35:15;;;;;;;14.95;8.45;;;23.90;90.00;;;;;;6245752;23;20071;-80
2022/06/02 00:37:55;;;;;;;13.63;8.23;;;23.90;89.80;;;;;;6219677;23;20004;-79
2022/06/02 00:40:21;;;;;;;;;;;23.90;90.20;;;;;;6246440;23;20099;-81
2022/06/02 00:42:53;;;;;;;13.55;8.70;;;23.90;90.60;;;;;;6246460;23;19907;-80
2022/06/02 00:45:21;;;;;;;11.57;7.60;;;23.90;90.20;;;;;;6244166;23;20028;-80
2022/06/02 00:48:06;;;;;;;10.00;8.10;;;23.90;90.10;;;;;;6246244;23;20330;-81
2022/06/02 00:50:42;;;;;;;11.18;7.97;;;23.90;90.20;;;;;;6246065;23;20007;-80
2022/06/02 00:53:20;;;;;;;13.40;9.13;;;23.90;90.10;;;;;;6246501;23;19996;-81
2022/06/02 00:58:52;;;;;;;15.25;8.90;;;23.90;90.20;;;;;;6246661;23;20015;-81
2022/06/02 01:01:31;;;;;;;14.65;8.52;;;23.90;90.20;;;;;;6246367;23;20320;-81
2022/06/02 01:03:59;;;;;;;13.07;7.47;;;23.90;90.50;;;;;;6246094;23;20004;-81
2022/06/02 01:06:48;;;;;;;18.42;9.20;;;23.80;90.50;;;;;;6219565;23;20438;-81
2022/06/02 01:09:35;;;;;;;10.43;7.53;;;23.80;90.80;;;;;;6218602;23;20091;-82
2022/06/02 01:12:04;;;;;;;12.95;8.57;;;23.80;90.70;;;;;;6246235;23;20403;-82
2022/06/02 01:14:50;;;;;;;17.30;8.10;;;23.90;90.50;;;;;;6245090;23;20003;-83
2022/06/02 01:17:26;;;;;;;18.55;10.52;;;23.90;90.50;;;;;;6243540;23;20763;-82
2022/06/02 01:20:11;;;;;;;12.48;7.93;;;23.80;91.20;;;;;;6219014;23;20095;-82
2022/06/02 01:23:07;;;;;;;15.85;8.73;;;23.80;90.80;;;;;;6246107;23;20000;-81
2022/06/02 01:25:42;;;;;;;13.50;8.93;;;23.80;91.20;;;;;;6244728;23;20004;-82
2022/06/02 01:28:10;;;;;;;14.05;8.50;;;23.80;91.00;;;;;;6245279;23;20027;-83
2022/06/02 01:31:15;;;;;;;14.35;8.57;;;23.80;91.20;;;;;;6245797;23;20027;-83
2022/06/02 01:33:58;;;;;;;13.65;7.65;;;23.80;91.10;;;;;;6212212;23;20004;-84
2022/06/02 01:36:33;;;;;;;11.73;7.75;;;23.80;91.20;;;;;;6245847;23;20006;-84
2022/06/02 01:39:14;;;;;;;14.57;8.68;;;23.80;91.10;;;;;;6244721;23;20434;-84
2022/06/02 01:42:04;;;;;;;11.98;8.30;;;23.80;91.10;;;;;;6245630;23;20422;-84
2022/06/02 01:45:10;;;;;;;17.27;9.68;;;23.80;91.10;;;;;;6245632;23;20007;-83
2022/06/02 01:47:38;;;;;;;14.88;8.55;;;23.80;91.20;;;;;;6245487;23;20000;-83
2022/06/02 01:50:29;;;;;;;18.90;9.98;;;23.80;91.10;;;;;;6245154;23;20032;-82
2022/06/02 01:53:03;;;;;;;13.00;8.75;;;23.80;91.20;;;;;;6245733;23;20039;-83
2022/06/02 01:55:58;;;;;;;15.82;9.05;;;23.80;91.20;;;;;;6244756;23;20001;-81
2022/06/02 01:59:21;;;;;;;12.52;8.75;;;23.80;91.30;;;;;;6245659;23;20079;-81
2022/06/02 02:01:53;;;;;;;19.20;9.32;;;23.80;91.20;;;;;;6094066;23;20026;-81
2022/06/02 02:04:55;;;;;;;11.95;8.63;;;23.80;91.30;;;;;;6093267;23;20006;-80
2022/06/02 02:07:54;;;;;;;14.82;8.65;;;23.80;91.40;;;;;;6227192;23;20004;-80
2022/06/02 02:10:44;;;;;;;14.43;10.00;;;23.80;91.40;;;;;;6245713;23;20399;-80
2022/06/02 02:13:28;;;;;;;14.73;9.15;;;23.80;91.50;;;;;;6245555;23;20386;-80
2022/06/02 02:16:02;;;;;;;12.57;8.68;;;23.80;91.50;;;;;;6244594;23;20004;-80
2022/06/02 02:18:47;;;;;;;12.68;8.35;;;23.80;91.50;;;;;;6245456;23;20465;-81
2022/06/02 02:21:21;;;;;;;12.48;8.80;;;23.80;91.60;;;;;;6244813;23;20004;-81
2022/06/02 02:24:01;;;;;;;14.18;9.95;;;23.80;91.40;;;;;;6245634;23;20472;-81
2022/06/02 02:26:45;;;;;;;22.90;15.52;;;23.80;91.40;;;;;;6243812;23;20004;-81
2022/06/02 02:29:20;;;;;;;14.30;10.30;;;23.60;91.70;;;;;;6245589;23;20004;-81
2022/06/02 02:32:09;;;;;;;19.00;13.43;;;23.60;91.60;;;;;;6245354;23;20087;-80
2022/06/02 02:34:40;;;;;;;18.90;11.93;;;23.40;92.00;;;;;;6245316;23;20310;-82
2022/06/02 02:37:18;;;;;;;24.05;17.45;;;23.30;92.10;;;;;;6244843;23;20049;-82
2022/06/02 02:39:57;;;;;;;21.08;12.68;;;23.20;92.30;;;;;;6245256;23;20007;-81
2022/06/02 02:42:40;;;;;;;18.42;13.20;;;23.20;92.20;;;;;;6218467;23;20043;-81
2022/06/02 02:45:28;;;;;;;21.48;14.38;;;23.30;92.10;;;;;;6244891;23;20007;-80
2022/06/02 02:48:06;;;;;;;22.30;15.70;;;23.20;92.10;;;;;;6218822;23;20057;-80
2022/06/02 02:50:44;;;;;;;32.63;20.90;;;23.10;92.40;;;;;;6244795;23;20027;-80
2022/06/02 02:53:44;;;;;;;20.88;15.57;;;23.00;92.50;;;;;;6244568;23;20103;-79
2022/06/02 02:56:16;;;;;;;19.88;15.80;;;23.00;92.30;;;;;;6234400;23;20406;-80
2022/06/02 02:58:55;;;;;;;21.60;15.93;;;23.10;92.20;;;;;;6244224;23;20435;-82
2022/06/02 03:01:35;;;;;;;30.90;19.92;;;23.10;92.10;;;;;;6242968;23;20008;-80
2022/06/02 03:04:34;;;;;;;24.48;17.27;;;23.20;92.20;;;;;;6244802;23;20374;-79
2022/06/02 03:06:59;;;;;;;27.05;17.45;;;23.20;92.20;;;;;;6244379;23;20000;-79
2022/06/02 03:10:06;;;;;;;22.10;16.85;;;23.10;92.00;;;;;;6217555;23;20015;-81
2022/06/02 03:13:01;;;;;;;32.08;21.48;;;23.20;92.00;;;;;;6197077;23;20087;-82
2022/06/02 03:15:58;;;;;;;24.33;16.77;;;23.20;92.30;;;;;;6197588;23;20008;-82
2022/06/02 03:18:30;;;;;;;31.02;18.10;;;23.10;92.10;;;;;;6245174;23;20004;-82
2022/06/02 03:20:55;;;;;;;33.75;18.45;;;23.10;92.10;;;;;;6244780;23;20035;-82
2022/06/02 03:23:33;;;;;;;28.98;18.48;;;23.20;92.10;;;;;;6244525;23;20399;-82
2022/06/02 03:26:06;;;;;;;33.05;17.95;;;23.20;92.40;;;;;;6244166;23;20363;-81
2022/06/02 03:28:57;;;;;;;38.95;18.48;;;23.10;92.50;;;;;;6245274;23;20004;-81
2022/06/02 03:31:50;;;;;;;31.85;17.38;;;23.10;92.40;;;;;;6244138;23;20005;-81
2022/06/02 03:34:31;;;;;;;29.85;15.88;;;23.20;92.40;;;;;;6244407;23;20011;-82
2022/06/02 03:37:23;;;;;;;32.85;16.92;;;23.20;92.30;;;;;;6245545;23;20076;-82
2022/06/02 03:40:10;;;;;;;37.03;20.92;;;23.20;92.30;;;;;;6244775;23;20004;-82
2022/06/02 03:42:54;;;;;;;24.35;14.13;;;23.20;92.50;;;;;;6244413;23;20289;-82
2022/06/02 03:45:35;;;;;;;27.27;15.63;;;23.20;92.30;;;;;;6244664;23;20008;-81
2022/06/02 03:48:24;;;;;;;22.38;13.82;;;23.30;92.30;;;;;;6243426;23;20059;-81
2022/06/02 03:51:24;;;;;;;23.02;12.68;;;23.30;92.40;;;;;;6188498;23;20430;-81
2022/06/02 03:53:52;;;;;;;25.20;13.63;;;23.30;92.30;;;;;;6244487;23;20007;-81
2022/06/02 03:57:05;;;;;;;19.50;10.63;;;23.30;92.30;;;;;;6245049;23;20083;-83
2022/06/02 03:59:52;;;;;;;22.42;13.82;;;23.30;92.20;;;;;;6121408;23;20022;-81
2022/06/02 04:02:28;;;;;;;29.02;16.42;;;23.30;92.30;;;;;;6237151;23;20078;-79
2022/06/02 04:05:42;;;;;;;19.55;11.57;;;23.40;92.50;;;;;;6245510;23;20000;-81
2022/06/02 04:08:13;;;;;;;22.15;11.63;;;23.40;92.20;;;;;;6138397;23;20017;-79
2022/06/02 04:11:10;;;;;;;19.95;11.05;;;23.40;92.20;;;;;;6246520;23;20036;-82
2022/06/02 04:13:54;;;;;;;15.93;10.45;;;23.40;92.20;;;;;;6246026;23;20070;-81
2022/06/02 04:17:01;;;;;;;14.10;10.38;;;23.40;92.10;;;;;;6246720;23;20591;-79
2022/06/02 04:23:03;;;;;;;14.10;10.00;;;23.50;92.10;;;;;;6245875;23;20095;-78
2022/06/02 04:25:56;;;;;;;14.30;10.55;;;23.50;92.00;;;;;;6246521;23;20023;-80
2022/06/02 04:28:44;;;;;;;13.63;9.52;;;23.50;92.00;;;;;;6245777;23;20000;-79
2022/06/02 04:31:44;;;;;;;16.90;9.63;;;23.50;92.00;;;;;;6246744;23;20004;-80
2022/06/02 04:34:42;;;;;;;16.52;9.60;;;23.60;92.00;;;;;;6245059;23;20001;-81
2022/06/02 04:37:35;;;;;;;20.25;12.88;;;23.60;92.10;;;;;;6219654;23;20000;-80
2022/06/02 04:40:29;;;;;;;18.60;10.20;;;23.60;92.20;;;;;;6245690;23;20004;-79
2022/06/02 04:43:15;;;;;;;20.23;12.90;;;23.60;92.10;;;;;;6219572;23;20012;-79
2022/06/02 04:45:58;;;;;;;16.65;11.85;;;23.60;92.00;;;;;;6245938;23;20000;-82
2022/06/02 04:48:48;;;;;;;16.15;11.93;;;23.50;92.10;;;;;;6245002;23;20000;-79
2022/06/02 04:51:52;;;;;;;18.20;11.53;;;23.50;92.10;;;;;;6245099;23;20079;-84
2022/06/02 04:54:42;;;;;;;17.40;11.43;;;23.50;92.20;;;;;;6244027;23;20030;-82
2022/06/02 04:57:27;;;;;;;;;;;23.50;92.20;;;;;;6245413;23;20075;-78
2022/06/02 05:00:04;;;;;;;19.23;12.13;;;23.50;92.30;;;;;;6242099;23;19906;-77
2022/06/02 05:02:40;;;;;;;21.25;13.18;;;23.50;92.20;;;;;;6244403;23;20000;-77
2022/06/02 05:05:17;;;;;;;20.20;14.13;;;23.50;92.30;;;;;;6246144;23;19996;-78
2022/06/02 05:07:46;;;;;;;18.52;12.52;;;23.40;92.30;;;;;;6246395;23;20073;-78
2022/06/02 05:10:21;;;;;;;16.63;13.10;;;23.50;92.20;;;;;;6245101;23;20004;-80
2022/06/02 05:13:01;;;;;;;24.08;16.40;;;23.40;92.20;;;;;;6245895;23;20338;-84
2022/06/02 05:15:48;;;;;;;22.95;14.93;;;23.50;92.60;;;;;;6218290;23;20033;-83
2022/06/02 05:18:18;;;;;;;18.35;13.68;;;23.50;92.20;;;;;;6245127;23;20419;-80
2022/06/02 05:21:06;;;;;;;21.20;14.27;;;23.50;92.20;;;;;;6245738;23;20004;-79
2022/06/02 05:23:56;;;;;;;18.00;11.82;;;23.50;92.20;;;;;;6245193;23;20466;-79
2022/06/02 05:26:22;;;;;;;19.17;13.30;;;23.60;92.30;;;;;;6245338;23;20008;-81
2022/06/02 05:29:31;;;;;;;16.95;12.68;;;23.60;92.20;;;;;;6245483;23;20011;-80
2022/06/02 05:32:19;;;;;;;22.13;12.23;;;23.60;92.20;;;;;;6223886;23;20008;-78
2022/06/02 05:35:21;;;;;;;16.55;11.73;;;23.60;92.20;;;;;;6244074;23;19996;-80
2022/06/02 05:37:52;;;;;;;19.10;12.23;;;23.60;92.20;;;;;;6244538;23;20007;-80
2022/06/02 05:40:36;;;;;;;17.58;12.82;;;23.60;92.20;;;;;;6246350;23;20011;-80
2022/06/02 05:43:11;;;;;;;15.48;11.65;;;23.60;92.20;;;;;;6245985;23;20004;-80
2022/06/02 05:46:04;;;;;;;17.25;11.35;;;23.70;92.10;;;;;;6245371;23;20007;-80
2022/06/02 05:48:59;;;;;;;18.95;11.93;;;23.70;92.20;;;;;;6246179;23;19996;-79
2022/06/02 05:51:52;;;;;;;15.98;11.77;;;23.70;92.20;;;;;;6218761;23;20015;-79
2022/06/02 05:54:24;;;;;;;17.50;12.15;;;23.80;92.20;;;;;;6241318;23;20085;-80
2022/06/02 05:57:00;;;;;;;19.75;12.52;;;23.80;92.30;;;;;;6218180;23;20249;-80
2022/06/02 05:59:37;;;;;;;18.38;11.27;;;23.80;92.30;;;;;;6218834;23;20431;-80
2022/06/02 06:02:25;;;;;;;16.83;11.48;;;23.80;92.30;;;;;;6245685;23;20004;-80
2022/06/02 06:05:16;;;;;;;13.07;10.25;;;23.80;92.30;;;;;;6245461;23;20004;-79
2022/06/02 06:07:45;;;;;;;15.60;10.70;;;23.90;92.30;;;;;;6244488;23;20010;-79
2022/06/02 06:10:38;;;;;;;15.13;10.77;;;23.90;92.20;;;;;;6245898;23;20443;-79
2022/06/02 06:13:21;;;;;;;13.60;9.27;;;24.00;92.20;;;;;;6245935;23;20067;-80
2022/06/02 06:16:13;;;;;;;16.13;10.25;;;24.10;92.10;;;;;;6245539;23;20331;-79
2022/06/02 06:19:06;;;;;;;16.65;10.43;;;24.10;92.00;;;;;;6172973;23;20361;-79
2022/06/02 06:22:22;;;;;;;17.05;10.50;;;24.20;91.90;;;;;;6218346;23;20015;-80
2022/06/02 06:25:25;;;;;;;13.70;9.98;;;24.20;91.90;;;;;;6245424;23;20011;-80
2022/06/02 06:28:30;;;;;;;15.82;9.50;;;24.30;91.80;;;;;;6244902;23;20004;-80
2022/06/02 06:31:26;;;;;;;17.25;9.32;;;24.30;91.70;;;;;;6069277;23;20085;-80
2022/06/02 06:34:06;;;;;;;15.93;9.48;;;24.40;91.60;;;;;;6112680;23;20006;-79
2022/06/02 06:36:53;;;;;;;16.38;10.25;;;24.40;91.50;;;;;;6245671;23;19996;-80
2022/06/02 06:39:22;;;;;;;14.68;9.05;;;24.40;91.40;;;;;;6245305;23;20000;-80
2022/06/02 06:41:54;;;;;;;17.58;11.40;;;24.50;91.30;;;;;;6244179;23;20012;-80
2022/06/02 06:44:58;;;;;;;15.57;9.18;;;24.50;91.10;;;;;;6245186;23;20081;-80
2022/06/02 06:47:33;;;;;;;20.55;12.60;;;24.50;91.20;;;;;;6245446;23;20000;-80
2022/06/02 06:50:23;;;;;;;13.07;8.50;;;24.60;91.10;;;;;;6218248;23;20012;-80
2022/06/02 06:53:30;;;;;;;14.23;8.80;;;24.60;91.10;;;;;;6244780;23;20004;-80
2022/06/02 06:56:01;;;;;;;15.23;8.60;;;24.60;91.00;;;;;;6245415;23;20000;-80
2022/06/02 06:59:01;;;;;;;12.45;8.10;;;24.70;91.00;;;;;;6245561;23;20122;-80
2022/06/02 07:01:50;;;;;;;9.33;6.60;;;24.80;90.80;;;;;;6187713;23;20015;-79
2022/06/02 07:04:53;;;;;;;15.32;7.13;;;24.80;90.70;;;;;;6218265;23;20415;-79
2022/06/02 07:07:26;;;;;;;10.20;5.85;;;24.90;90.60;;;;;;6243409;23;20522;-80
2022/06/02 07:10:12;;;;;;;9.07;6.05;;;25.00;90.40;;;;;;6244467;23;20075;-79
2022/06/02 07:13:02;;;;;;;14.00;6.93;;;25.00;90.10;;;;;;6216674;23;20327;-82
2022/06/02 07:15:44;;;;;;;10.77;6.30;;;25.00;89.50;;;;;;6243593;23;20114;-79
2022/06/02 07:18:34;;;;;;;13.32;6.30;;;25.00;90.00;;;;;;6216563;23;20138;-78
2022/06/02 07:21:11;;;;;;;9.80;6.00;;;25.00;89.30;;;;;;6242039;23;20066;-78
2022/06/02 07:23:54;;;;;;;12.05;6.90;;;25.10;88.80;;;;;;6243032;23;20390;-79
2022/06/02 07:26:26;;;;;;;11.35;6.07;;;25.10;88.40;;;;;;6218264;23;20019;-79
2022/06/02 07:29:14;;;;;;;15.10;6.30;;;25.10;89.00;;;;;;6244947;23;20007;-80
2022/06/02 07:32:02;;;;;;;13.77;7.15;;;25.20;89.10;;;;;;6243732;23;20004;-79
2022/06/02 07:35:02;;;;;;;10.25;6.20;;;25.20;88.60;;;;;;6241693;23;20000;-79
2022/06/02 07:37:54;;;;;;;11.88;5.65;;;25.30;88.50;;;;;;6243519;23;20000;-78
2022/06/02 07:40:28;;;;;;;9.68;5.80;;;25.30;88.10;;;;;;6217648;23;20449;-81
2022/06/02 07:43:22;;;;;;;13.27;6.43;;;25.30;88.10;;;;;;6218727;23;20016;-81
2022/06/02 07:45:57;;;;;;;9.25;5.00;;;25.40;87.90;;;;;;6173792;23;20000;-80
2022/06/02 07:49:05;;;;;;;12.95;5.07;;;25.40;87.50;;;;;;6243676;23;20020;-81
2022/06/02 07:52:02;;;;;;;8.00;5.00;;;25.40;87.50;;;;;;6217216;23;20441;-79
2022/06/02 07:54:48;;;;;;;14.02;6.28;;;25.40;87.20;;;;;;6245684;23;20249;-80
2022/06/02 07:57:37;;;;;;;8.05;4.68;;;25.40;86.90;;;;;;6246496;23;20000;-80
2022/06/02 08:00:21;;;;;;;9.70;5.53;;;25.50;87.00;;;;;;6246015;23;20403;-81
2022/06/02 08:03:08;;;;;;;8.48;5.15;;;25.50;86.90;;;;;;6245156;23;20004;-80
2022/06/02 08:05:59;;;;;;;9.52;5.28;;;25.60;87.00;;;;;;6245900;23;20004;-80
2022/06/02 08:08:29;;;;;;;12.15;5.63;;;25.70;86.90;;;;;;6217318;23;20018;-81
2022/06/02 08:11:17;;;;;;;8.93;5.45;;;25.80;86.80;;;;;;6245542;23;20000;-80
2022/06/02 08:13:57;;;;;;;9.02;5.00;;;25.90;86.00;;;;;;6245940;23;20410;-80
2022/06/02 08:16:43;;;;;;;10.00;5.05;;;25.90;86.00;;;;;;6244922;23;20700;-80
2022/06/02 08:19:27;;;;;;;9.32;4.43;;;25.90;86.20;;;;;;6218830;23;20000;-79
2022/06/02 08:21:59;;;;;;;9.60;4.40;;;26.00;86.10;;;;;;6245098;23;20004;-80
2022/06/02 08:24:54;;;;;;;9.07;4.50;;;26.10;85.90;;;;;;6245695;23;20353;-80
2022/06/02 08:27:39;;;;;;;6.55;4.28;;;26.10;85.40;;;;;;6246151;23;20004;-81
2022/06/02 08:30:18;;;;;;;10.48;4.93;;;26.10;85.10;;;;;;6244084;23;20006;-83
2022/06/02 08:33:05;;;;;;;7.95;4.65;;;26.10;85.00;;;;;;6245246;23;20012;-81
2022/06/02 08:35:52;;;;;;;7.88;4.95;;;26.20;84.50;;;;;;6245944;23;20411;-81
2022/06/02 08:38:28;;;;;;;8.35;4.50;;;26.20;84.60;;;;;;6216789;23;20347;-81
2022/06/02 08:41:30;;;;;;;11.68;4.82;;;26.20;85.00;;;;;;6243667;23;20000;-80
2022/06/02 08:44:25;;;;;;;11.70;5.40;;;26.20;84.60;;;;;;6244754;23;20034;-80
2022/06/02 08:46:53;;;;;;;12.48;7.00;;;26.20;84.20;;;;;;6246217;23;20012;-81
2022/06/02 08:49:56;;;;;;;8.48;4.78;;;26.20;83.30;;;;;;6245678;23;20004;-81
2022/06/02 08:52:53;;;;;;;11.60;5.30;;;26.20;84.20;;;;;;6244919;23;20012;-80
2022/06/02 08:55:58;;;;;;;9.70;5.05;;;26.30;84.00;;;;;;6246146;23;20126;-76
2022/06/02 08:58:29;;;;;;;12.05;6.07;;;26.40;84.10;;;;;;6224431;23;20000;-77
2022/06/02 09:01:13;;;;;;;9.43;4.78;;;26.50;83.50;;;;;;6250807;23;20008;-76
2022/06/02 09:04:04;;;;;;;7.82;4.70;;;26.60;83.70;;;;;;6220112;23;20143;-76
2022/06/02 09:07:06;;;;;;;7.72;4.35;;;26.70;83.50;;;;;;6242917;23;20382;-81
2022/06/02 09:10:01;;;;;;;11.57;4.68;;;26.90;84.00;;;;;;6247792;23;20067;-76
2022/06/02 09:13:04;;;;;;;8.88;4.85;;;27.00;82.00;;;;;;6210163;23;20067;-77
2022/06/02 09:16:07;;;;;;;7.68;4.53;;;27.10;82.20;;;;;;6218017;23;20058;-76
2022/06/02 09:19:13;;;;;;;15.07;6.50;;;27.10;81.50;;;;;;6247000;23;20019;-76
2022/06/02 09:21:44;;;;;;;8.30;3.95;;;27.10;80.10;;;;;;6219674;23;20011;-77
2022/06/02 09:24:41;;;;;;;13.68;4.47;;;27.10;81.70;;;;;;6250833;23;20320;-81
2022/06/02 09:27:31;;;;;;;9.38;4.30;;;27.10;81.30;;;;;;6252223;23;20007;-81
2022/06/02 09:30:14;;;;;;;12.77;4.90;;;27.20;80.40;;;;;;6220958;23;20087;-81
2022/06/02 09:32:39;;;;;;;;;;;27.20;80.50;;;;;;6224485;23;20012;-81
2022/06/02 09:35:22;;;;;;;8.52;4.47;;;27.30;79.90;;;;;;6251806;23;19950;-81
2022/06/02 09:38:18;;;;;;;9.88;4.70;;;27.30;80.80;;;;;;6221822;23;20000;-81
2022/06/02 09:40:46;;;;;;;6.00;3.75;;;27.40;80.20;;;;;;6242122;23;20058;-78
2022/06/02 09:43:21;;;;;;;13.07;6.30;;;27.50;80.60;;;;;;6244344;23;20058;-77
2022/06/02 09:45:56;;;;;;;6.47;4.22;;;27.50;79.00;;;;;;6247166;23;20004;-77
2022/06/02 09:48:40;;;;;;;6.93;3.90;;;27.60;79.90;;;;;;6242970;23;20488;-77
2022/06/02 09:51:44;;;;;;;7.32;4.60;;;27.60;80.00;;;;;;6216669;23;20012;-77
2022/06/02 09:54:23;;;;;;;8.63;4.38;;;27.70;79.90;;;;;;6228146;22;20028;-75
2022/06/02 09:57:56;;;;;;;8.30;4.50;;;27.80;79.70;;;;;;6189478;23;20009;-75
2022/06/02 10:00:39;;;;;;;7.60;4.13;;;27.90;79.40;;;;;;6211335;23;20087;-75
2022/06/02 10:03:42;;;;;;;15.13;5.82;;;27.90;78.50;;;;;;6214172;23;20000;-75
2022/06/02 10:06:45;;;;;;;8.05;3.92;;;28.00;78.20;;;;;;6187996;23;20012;-74
2022/06/02 10:09:49;;;;;;;8.15;4.60;;;28.00;78.30;;;;;;6215940;23;19997;-75
2022/06/02 10:15:44;;;;;;;9.38;4.53;;;28.00;76.40;;;;;;6215439;23;20016;-75
2022/06/02 10:18:13;;;;;;;7.07;4.25;;;28.00;77.60;;;;;;6193436;23;20005;-74
2022/06/02 10:21:11;;;;;;;7.45;3.33;;;28.10;78.00;;;;;;6222980;23;19997;-74
2022/06/02 10:24:07;;;;;;;6.88;3.83;;;28.30;77.00;;;;;;6219945;23;20001;-74
2022/06/02 10:27:11;;;;;;;10.43;4.65;;;28.30;76.90;;;;;;6195669;23;20120;-75
2022/06/02 10:30:19;;;;;;;8.43;3.80;;;28.40;75.90;;;;;;6216818;23;20011;-75
2022/06/02 10:33:03;;;;;;;12.35;4.43;;;28.50;76.40;;;;;;6215671;23;20005;-76
2022/06/02 10:35:52;;;;;;;41.60;6.57;;;28.70;75.60;;;;;;6217839;23;19996;-75
2022/06/02 10:38:33;;;;;;;12.27;4.25;;;28.80;75.10;;;;;;6215901;23;20004;-75
2022/06/02 10:41:31;;;;;;;8.75;4.00;;;28.90;74.90;;;;;;6192744;23;20009;-76
2022/06/02 10:44:19;;;;;;;7.57;3.67;;;29.00;74.30;;;;;;6189837;23;20005;-76
2022/06/02 10:47:04;;;;;;;9.35;4.15;;;29.10;72.90;;;;;;6217886;23;20084;-76
2022/06/02 10:49:44;;;;;;;6.53;3.67;;;29.20;72.20;;;;;;6216513;23;20415;-74
2022/06/02 10:52:48;;;;;;;6.75;3.17;;;29.30;72.40;;;;;;6215476;23;20052;-75
2022/06/02 10:55:51;;;;;;;5.85;3.92;;;29.40;70.60;;;;;;6217540;23;20004;-74
2022/06/02 10:58:28;;;;;;;6.07;3.08;;;29.60;70.00;;;;;;6217460;23;20562;-74
2022/06/02 11:01:31;;;;;;;7.30;3.63;;;29.70;69.60;;;;;;6216737;23;20000;-74
2022/06/02 11:04:27;;;;;;;9.32;3.90;;;29.90;69.90;;;;;;6189209;23;20059;-74
2022/06/02 11:07:30;;;;;;;7.22;4.00;;;30.00;69.40;;;;;;6189824;23;20004;-74
2022/06/02 11:10:34;;;;;;;6.00;3.88;;;30.10;70.00;;;;;;6216621;23;20007;-74
2022/06/02 11:13:20;;;;;;;6.40;2.95;;;30.30;68.50;;;;;;6124718;23;20018;-74
2022/06/02 11:16:29;;;;;;;6.82;3.47;;;30.40;68.40;;;;;;6185162;23;20426;-75
2022/06/02 11:22:54;;;;;;;5.55;3.17;;;30.90;67.00;;;;;;6251318;22;20074;-76
2022/06/02 11:25:44;;;;;;;7.40;3.92;;;31.10;66.30;;;;;;6248916;23;20067;-75
2022/06/02 11:28:24;;;;;;;6.78;3.30;;;31.30;65.30;;;;;;6251461;23;20393;-75
2022/06/02 11:31:18;;;;;;;7.10;2.85;;;31.50;65.60;;;;;;6246993;23;20008;-75
2022/06/02 11:33:50;;;;;;;6.43;3.10;;;31.80;63.70;;;;;;6245668;23;20652;-76
2022/06/02 11:36:42;;;;;;;7.28;3.33;;;32.10;64.80;;;;;;6250276;23;19996;-76
2022/06/02 11:39:39;;;;;;;7.57;3.25;;;32.20;61.70;;;;;;6250099;23;20001;-75
2022/06/02 11:42:27;;;;;;;9.38;3.25;;;32.20;60.50;;;;;;6248957;23;20000;-75
2022/06/02 11:45:22;;;;;;;9.93;3.15;;;32.20;61.20;;;;;;6250925;23;20376;-75
2022/06/02 11:47:50;;;;;;;8.73;3.45;;;32.30;61.30;;;;;;6223708;23;20015;-77
2022/06/02 11:50:48;;;;;;;7.00;3.35;;;32.50;62.00;;;;;;6248748;23;20031;-77
2022/06/02 11:53:23;;;;;;;10.20;3.63;;;32.50;60.00;;;;;;6249231;23;20445;-76
2022/06/02 11:56:15;;;;;;;6.68;3.20;;;32.70;59.80;;;;;;6250352;23;20000;-77
2022/06/02 11:58:48;;;;;;;9.02;3.50;;;32.90;61.90;;;;;;6218950;23;20005;-76
2022/06/02 12:01:51;;;;;;;6.95;3.35;;;33.20;61.70;;;;;;6242827;23;20000;-75
2022/06/02 12:04:48;;;;;;;5.40;2.58;;;33.50;59.00;;;;;;6244431;23;20310;-75
2022/06/02 12:07:23;;;;;;;7.78;3.47;;;33.60;58.30;;;;;;6218159;23;20028;-78
2022/06/02 12:10:10;;;;;;;6.68;3.42;;;33.70;59.20;;;;;;6218030;23;20087;-78
2022/06/02 12:12:54;;;;;;;6.60;3.08;;;33.80;57.30;;;;;;6245760;23;20018;-78
2022/06/02 12:15:57;;;;;;;8.82;3.58;;;34.10;58.90;;;;;;6245859;23;20418;-75
2022/06/02 12:18:53;;;;;;;8.95;3.67;;;34.10;57.10;;;;;;6244558;23;20000;-75
2022/06/02 12:21:39;;;;;;;7.07;3.65;;;34.20;57.10;;;;;;6202088;22;20043;-75
2022/06/02 12:24:23;;;;;;;7.00;3.80;;;34.40;58.20;;;;;;6276057;22;20007;-75
2022/06/02 12:27:15;;;;;;;4.85;3.17;;;34.50;55.10;;;;;;6277854;22;20003;-75
2022/06/02 12:29:46;;;;;;;6.45;3.20;;;34.60;57.30;;;;;;6255320;22;20012;-75
2022/06/02 12:32:40;;;;;;;6.38;2.92;;;34.80;57.00;;;;;;6276963;22;20000;-76
2022/06/02 12:35:26;;;;;;;7.13;3.10;;;34.90;54.40;;;;;;6250460;22;20026;-75
2022/06/02 12:38:23;;;;;;;8.70;4.03;;;34.90;54.50;;;;;;6250378;22;20086;-75
2022/06/02 12:41:34;;;;;;;7.15;3.90;;;34.90;54.70;;;;;;6276847;22;20000;-75
2022/06/02 12:44:24;;;;;;;6.32;3.40;;;34.80;54.90;;;;;;6246624;22;20382;-75
2022/06/02 12:47:19;;;;;;;7.50;3.60;;;34.90;54.50;;;;;;6277495;22;19996;-75
2022/06/02 12:50:13;;;;;;;8.07;3.65;;;35.00;53.90;;;;;;6276945;22;20011;-75
2022/06/02 12:52:41;;;;;;;6.82;3.17;;;35.00;54.70;;;;;;6277581;22;20026;-75
2022/06/02 12:55:44;;;;;;;5.72;2.92;;;34.90;53.90;;;;;;6277684;22;20004;-75
2022/06/02 12:58:51;;;;;;;7.55;3.22;;;35.00;52.20;;;;;;6277218;22;20000;-75
2022/06/02 13:01:30;;;;;;;6.78;3.17;;;35.10;52.60;;;;;;6129049;23;20146;-76
2022/06/02 13:04:26;;;;;;;8.88;2.95;;;35.00;53.20;;;;;;6153903;23;20110;-75
2022/06/02 13:07:10;;;;;;;8.73;3.25;;;35.00;51.40;;;;;;6250996;22;20279;-78
2022/06/02 13:10:05;;;;;;;5.82;2.85;;;35.00;51.90;;;;;;6277185;22;20000;-78
2022/06/02 13:12:49;;;;;;;8.98;4.00;;;35.00;51.90;;;;;;6277752;22;20003;-78
2022/06/02 13:15:39;;;;;;;4.60;2.55;;;35.00;51.00;;;;;;6277746;22;20398;-78
2022/06/02 13:18:16;;;;;;;6.05;3.53;;;35.00;50.70;;;;;;6277199;22;20031;-78
2022/06/02 13:20:52;;;;;;;5.43;2.97;;;34.80;51.70;;;;;;6277348;22;20004;-79
2022/06/02 13:23:55;;;;;;;7.55;3.00;;;34.80;51.10;;;;;;6249789;22;20612;-79
2022/06/02 13:26:48;;;;;;;4.38;2.67;;;34.80;49.30;;;;;;6277030;22;20093;-78
2022/06/02 13:29:37;;;;;;;6.22;3.40;;;34.90;50.50;;;;;;6277473;22;20057;-78
2022/06/02 13:32:13;;;;;;;5.10;3.23;;;34.80;50.20;;;;;;6250609;22;20106;-78
2022/06/02 13:35:16;;;;;;;5.95;2.80;;;34.80;49.40;;;;;;6250481;22;20329;-78
2022/06/02 13:37:50;;;;;;;6.72;3.03;;;34.70;50.40;;;;;;6276774;22;20022;-78
2022/06/02 13:40:40;;;;;;;7.53;3.30;;;34.70;48.90;;;;;;6277315;22;20000;-78
2022/06/02 13:43:20;;;;;;;;;;;34.60;48.50;;;;;;6277945;22;20114;-78
2022/06/02 13:46:24;;;;;;;4.82;2.50;;;34.50;49.30;;;;;;6277445;22;19910;-78
2022/06/02 13:49:41;;;;;;;8.18;3.38;;;34.40;47.80;;;;;;6277303;22;20018;-78
2022/06/02 13:52:31;;;;;;;4.93;2.25;;;34.30;48.80;;;;;;6153797;23;20117;-78
2022/06/02 13:58:11;;;;;;;6.70;3.53;;;34.00;49.40;;;;;;6277392;22;20022;-78
2022/06/02 14:00:39;;;;;;;6.10;3.47;;;33.80;49.80;;;;;;6250303;22;20414;-78
2022/06/02 14:03:38;;;;;;;8.40;3.33;;;33.80;50.10;;;;;;6277190;22;19999;-78
2022/06/02 14:06:11;;;;;;;6.07;2.90;;;33.80;50.00;;;;;;6250515;22;20057;-77
2022/06/02 14:09:01;;;;;;;7.40;3.33;;;33.60;50.80;;;;;;6249996;22;20094;-78
2022/06/02 14:11:50;;;;;;;7.47;3.50;;;33.50;50.50;;;;;;6277046;22;20007;-78
2022/06/02 14:14:38;;;;;;;8.20;3.15;;;33.40;50.80;;;;;;6277507;22;20054;-78
2022/06/02 14:17:21;;;;;;;4.82;2.40;;;33.40;50.90;;;;;;6250009;22;20010;-78
2022/06/02 14:20:17;;;;;;;9.38;3.38;;;33.20;50.70;;;;;;6276671;22;20010;-78
2022/06/02 14:23:07;;;;;;;6.70;2.80;;;33.10;51.30;;;;;;6276944;22;20015;-78
2022/06/02 14:25:44;;;;;;;8.00;2.80;;;33.00;51.80;;;;;;6277085;22;20031;-77
2022/06/02 14:28:25;;;;;;;8.70;3.22;;;32.80;51.70;;;;;;6276595;22;20004;-77
2022/06/02 14:31:21;;;;;;;7.45;2.75;;;32.70;50.60;;;;;;6276409;22;20509;-77
2022/06/02 14:34:16;;;;;;;9.25;3.38;;;32.60;49.60;;;;;;6277263;22;20071;-77
2022/06/02 14:36:54;;;;;;;4.80;2.30;;;32.40;49.90;;;;;;6271106;22;20045;-77